sensor_id;sensor_type;location;lat;lon;timestamp;temperature;humidity
54518;DHT22;40423;53.176;6.002;2022-08-30T00:00:49;15.90;99.90
54518;DHT22;40423;53.176;6.002;2022-08-30T00:03:33;15.90;99.90
54518;DHT22;40423;53.176;6.002;2022-08-30T00:06:01;15.90;99.90
54518;DHT22;40423;53.176;6.002;2022-08-30T00:08:27;15.80;99.90
54518;DHT22;40423;53.176;6.002;2022-08-30T00:10:53;15.80;99.90
54518;DHT22;40423;53.176;6.002;2022-08-30T00:13:19;15.80;99.90
54518;DHT22;40423;53.176;6.002;2022-08-30T00:15:45;15.90;99.90
54518;DHT22;40423;53.176;6.002;2022-08-30T00:18:11;15.80;99.90
54518;DHT22;40423;53.176;6.002;2022-08-30T00:20:38;15.90;99.90
54518;DHT22;40423;53.176;6.002;2022-08-30T00:23:04;15.90;99.90
54518;DHT22;40423;53.176;6.002;2022-08-30T00:25:30;16.00;99.90
54518;DHT22;40423;53.176;6.002;2022-08-30T00:27:56;16.00;99.90
54518;DHT22;40423;53.176;6.002;2022-08-30T00:30:22;16.00;99.90
54518;DHT22;40423;53.176;6.002;2022-08-30T00:32:48;16.10;99.90
54518;DHT22;40423;53.176;6.002;2022-08-30T00:35:16;16.10;99.90
54518;DHT22;40423;53.176;6.002;2022-08-30T00:37:42;16.10;99.90
54518;DHT22;40423;53.176;6.002;2022-08-30T00:40:09;16.10;99.90
54518;DHT22;40423;53.176;6.002;2022-08-30T00:42:37;16.20;99.90
54518;DHT22;40423;53.176;6.002;2022-08-30T00:45:16;16.20;99.90
54518;DHT22;40423;53.176;6.002;2022-08-30T00:47:43;16.20;99.90
54518;DHT22;40423;53.176;6.002;2022-08-30T00:50:10;16.20;99.90
54518;DHT22;40423;53.176;6.002;2022-08-30T00:52:40;16.20;99.90
54518;DHT22;40423;53.176;6.002;2022-08-30T00:55:07;16.10;99.90
54518;DHT22;40423;53.176;6.002;2022-08-30T00:57:33;16.10;99.90
54518;DHT22;40423;53.176;6.002;2022-08-30T01:00:01;16.10;99.90
54518;DHT22;40423;53.176;6.002;2022-08-30T01:02:29;16.10;99.90
54518;DHT22;40423;53.176;6.002;2022-08-30T01:04:56;16.10;99.90
54518;DHT22;40423;53.176;6.002;2022-08-30T01:07:22;16.10;99.90
54518;DHT22;40423;53.176;6.002;2022-08-30T01:09:49;16.10;99.90
54518;DHT22;40423;53.176;6.002;2022-08-30T01:12:15;16.10;99.90
54518;DHT22;40423;53.176;6.002;2022-08-30T01:14:40;16.10;99.90
54518;DHT22;40423;53.176;6.002;2022-08-30T01:17:08;16.20;99.90
54518;DHT22;40423;53.176;6.002;2022-08-30T01:19:56;16.20;99.90
54518;DHT22;40423;53.176;6.002;2022-08-30T01:25:08;16.20;99.90
54518;DHT22;40423;53.176;6.002;2022-08-30T01:27:37;16.20;99.90
54518;DHT22;40423;53.176;6.002;2022-08-30T01:30:05;16.20;99.90
54518;DHT22;40423;53.176;6.002;2022-08-30T01:32:31;16.20;99.90
54518;DHT22;40423;53.176;6.002;2022-08-30T01:35:02;16.20;99.90
54518;DHT22;40423;53.176;6.002;2022-08-30T01:37:31;16.20;99.90
54518;DHT22;40423;53.176;6.002;2022-08-30T01:39:58;16.20;99.90
54518;DHT22;40423;53.176;6.002;2022-08-30T01:42:24;16.10;99.90
54518;DHT22;40423;53.176;6.002;2022-08-30T01:44:50;16.10;99.90
54518;DHT22;40423;53.176;6.002;2022-08-30T01:47:16;16.10;99.90
54518;DHT22;40423;53.176;6.002;2022-08-30T01:49:44;16.10;99.90
54518;DHT22;40423;53.176;6.002;2022-08-30T01:52:11;16.10;99.90
54518;DHT22;40423;53.176;6.002;2022-08-30T01:54:39;16.10;99.90
54518;DHT22;40423;53.176;6.002;2022-08-30T01:57:07;16.10;99.90
54518;DHT22;40423;53.176;6.002;2022-08-30T01:59:33;16.10;99.90
54518;DHT22;40423;53.176;6.002;2022-08-30T02:01:58;16.10;99.90
54518;DHT22;40423;53.176;6.002;2022-08-30T02:04:24;16.10;99.90
54518;DHT22;40423;53.176;6.002;2022-08-30T02:06:51;16.00;99.90
54518;DHT22;40423;53.176;6.002;2022-08-30T02:09:17;16.00;99.90
54518;DHT22;40423;53.176;6.002;2022-08-30T02:11:43;16.00;99.90
54518;DHT22;40423;53.176;6.002;2022-08-30T02:14:10;16.00;99.90
54518;DHT22;40423;53.176;6.002;2022-08-30T02:16:36;16.00;99.90
54518;DHT22;40423;53.176;6.002;2022-08-30T02:19:02;16.00;99.90
54518;DHT22;40423;53.176;6.002;2022-08-30T02:21:28;16.00;99.90
54518;DHT22;40423;53.176;6.002;2022-08-30T02:23:54;15.90;99.90
54518;DHT22;40423;53.176;6.002;2022-08-30T02:26:20;15.90;99.90
54518;DHT22;40423;53.176;6.002;2022-08-30T02:28:47;15.90;99.90
54518;DHT22;40423;53.176;6.002;2022-08-30T02:31:13;15.90;99.90
54518;DHT22;40423;53.176;6.002;2022-08-30T02:33:39;16.00;99.90
54518;DHT22;40423;53.176;6.002;2022-08-30T02:36:06;15.90;99.90
54518;DHT22;40423;53.176;6.002;2022-08-30T02:38:33;15.90;99.90
54518;DHT22;40423;53.176;6.002;2022-08-30T02:40:59;15.90;99.90
54518;DHT22;40423;53.176;6.002;2022-08-30T02:43:25;15.90;99.90
54518;DHT22;40423;53.176;6.002;2022-08-30T02:45:51;15.80;99.90
54518;DHT22;40423;53.176;6.002;2022-08-30T02:48:18;15.80;99.90
54518;DHT22;40423;53.176;6.002;2022-08-30T02:50:47;15.70;99.90
54518;DHT22;40423;53.176;6.002;2022-08-30T02:53:14;15.80;99.90
54518;DHT22;40423;53.176;6.002;2022-08-30T02:55:41;15.70;99.90
54518;DHT22;40423;53.176;6.002;2022-08-30T02:58:07;15.60;99.90
54518;DHT22;40423;53.176;6.002;2022-08-30T03:00:33;15.60;99.90
54518;DHT22;40423;53.176;6.002;2022-08-30T03:02:59;15.60;99.90
54518;DHT22;40423;53.176;6.002;2022-08-30T03:05:29;15.50;99.90
54518;DHT22;40423;53.176;6.002;2022-08-30T03:07:55;15.50;99.90
54518;DHT22;40423;53.176;6.002;2022-08-30T03:10:21;15.50;99.90
54518;DHT22;40423;53.176;6.002;2022-08-30T03:12:47;15.50;99.90
54518;DHT22;40423;53.176;6.002;2022-08-30T03:15:13;15.50;99.90
54518;DHT22;40423;53.176;6.002;2022-08-30T03:17:40;15.40;99.90
54518;DHT22;40423;53.176;6.002;2022-08-30T03:20:06;15.40;99.90
54518;DHT22;40423;53.176;6.002;2022-08-30T03:22:32;15.30;99.90
54518;DHT22;40423;53.176;6.002;2022-08-30T03:24:58;15.30;99.90
54518;DHT22;40423;53.176;6.002;2022-08-30T03:27:26;15.20;99.90
54518;DHT22;40423;53.176;6.002;2022-08-30T03:29:53;15.30;99.90
54518;DHT22;40423;53.176;6.002;2022-08-30T03:32:19;15.20;99.90
54518;DHT22;40423;53.176;6.002;2022-08-30T03:34:45;15.10;99.90
54518;DHT22;40423;53.176;6.002;2022-08-30T03:37:11;15.00;99.90
54518;DHT22;40423;53.176;6.002;2022-08-30T03:39:36;14.90;99.90
54518;DHT22;40423;53.176;6.002;2022-08-30T03:42:02;14.90;99.90
54518;DHT22;40423;53.176;6.002;2022-08-30T03:44:29;14.80;99.90
54518;DHT22;40423;53.176;6.002;2022-08-30T03:46:54;14.80;99.90
54518;DHT22;40423;53.176;6.002;2022-08-30T03:49:21;14.80;99.90
54518;DHT22;40423;53.176;6.002;2022-08-30T03:51:47;14.80;99.90
54518;DHT22;40423;53.176;6.002;2022-08-30T03:54:13;14.80;99.90
54518;DHT22;40423;53.176;6.002;2022-08-30T03:56:39;14.80;99.90
54518;DHT22;40423;53.176;6.002;2022-08-30T03:59:06;14.80;99.90
54518;DHT22;40423;53.176;6.002;2022-08-30T04:01:31;14.80;99.90
54518;DHT22;40423;53.176;6.002;2022-08-30T04:03:57;14.80;99.90
54518;DHT22;40423;53.176;6.002;2022-08-30T04:06:23;14.70;99.90
54518;DHT22;40423;53.176;6.002;2022-08-30T04:08:49;14.70;99.90
54518;DHT22;40423;53.176;6.002;2022-08-30T04:11:15;14.70;99.90
54518;DHT22;40423;53.176;6.002;2022-08-30T04:13:41;14.60;99.90
54518;DHT22;40423;53.176;6.002;2022-08-30T04:16:08;14.60;99.90
54518;DHT22;40423;53.176;6.002;2022-08-30T04:18:37;14.50;99.90
54518;DHT22;40423;53.176;6.002;2022-08-30T04:21:03;14.40;99.90
54518;DHT22;40423;53.176;6.002;2022-08-30T04:23:29;14.10;99.90
54518;DHT22;40423;53.176;6.002;2022-08-30T04:25:55;14.40;99.90
54518;DHT22;40423;53.176;6.002;2022-08-30T04:28:21;14.40;99.90
54518;DHT22;40423;53.176;6.002;2022-08-30T04:30:47;14.30;99.90
54518;DHT22;40423;53.176;6.002;2022-08-30T04:33:14;14.30;99.90
54518;DHT22;40423;53.176;6.002;2022-08-30T04:35:44;14.30;99.90
54518;DHT22;40423;53.176;6.002;2022-08-30T04:38:11;14.30;99.90
54518;DHT22;40423;53.176;6.002;2022-08-30T04:40:43;14.20;99.90
54518;DHT22;40423;53.176;6.002;2022-08-30T04:43:10;14.20;99.90
54518;DHT22;40423;53.176;6.002;2022-08-30T04:45:38;14.10;99.90
54518;DHT22;40423;53.176;6.002;2022-08-30T04:48:05;14.10;99.90
54518;DHT22;40423;53.176;6.002;2022-08-30T04:50:31;14.00;99.90
54518;DHT22;40423;53.176;6.002;2022-08-30T04:52:57;14.00;99.90
54518;DHT22;40423;53.176;6.002;2022-08-30T04:55:23;14.00;99.90
54518;DHT22;40423;53.176;6.002;2022-08-30T04:57:51;14.00;99.90
54518;DHT22;40423;53.176;6.002;2022-08-30T05:00:18;14.00;99.90
54518;DHT22;40423;53.176;6.002;2022-08-30T05:02:48;14.00;99.90
54518;DHT22;40423;53.176;6.002;2022-08-30T05:05:13;14.00;99.90
54518;DHT22;40423;53.176;6.002;2022-08-30T05:07:58;14.00;99.90
54518;DHT22;40423;53.176;6.002;2022-08-30T05:10:24;14.10;99.90
54518;DHT22;40423;53.176;6.002;2022-08-30T05:12:52;14.20;99.90
54518;DHT22;40423;53.176;6.002;2022-08-30T05:15:18;14.20;99.90
54518;DHT22;40423;53.176;6.002;2022-08-30T05:17:44;14.30;99.90
54518;DHT22;40423;53.176;6.002;2022-08-30T05:20:11;14.30;99.90
54518;DHT22;40423;53.176;6.002;2022-08-30T05:22:38;14.30;99.90
54518;DHT22;40423;53.176;6.002;2022-08-30T05:25:05;14.20;99.90
54518;DHT22;40423;53.176;6.002;2022-08-30T05:27:31;14.20;99.90
54518;DHT22;40423;53.176;6.002;2022-08-30T05:29:57;14.30;99.90
54518;DHT22;40423;53.176;6.002;2022-08-30T05:32:23;14.30;99.90
54518;DHT22;40423;53.176;6.002;2022-08-30T05:34:49;14.30;99.90
54518;DHT22;40423;53.176;6.002;2022-08-30T05:37:15;14.40;99.90
54518;DHT22;40423;53.176;6.002;2022-08-30T05:39:41;14.40;99.90
54518;DHT22;40423;53.176;6.002;2022-08-30T05:42:07;14.40;99.90
54518;DHT22;40423;53.176;6.002;2022-08-30T05:44:32;14.50;99.90
54518;DHT22;40423;53.176;6.002;2022-08-30T05:46:58;14.50;99.90
54518;DHT22;40423;53.176;6.002;2022-08-30T05:49:24;14.60;99.90
54518;DHT22;40423;53.176;6.002;2022-08-30T05:51:49;14.70;99.90
54518;DHT22;40423;53.176;6.002;2022-08-30T05:54:15;14.70;99.90
54518;DHT22;40423;53.176;6.002;2022-08-30T05:56:43;14.80;99.90
54518;DHT22;40423;53.176;6.002;2022-08-30T05:59:10;14.90;99.90
54518;DHT22;40423;53.176;6.002;2022-08-30T06:01:43;14.90;99.90
54518;DHT22;40423;53.176;6.002;2022-08-30T06:04:11;15.00;99.90
54518;DHT22;40423;53.176;6.002;2022-08-30T06:06:40;15.10;99.90
54518;DHT22;40423;53.176;6.002;2022-08-30T06:09:08;15.20;99.90
54518;DHT22;40423;53.176;6.002;2022-08-30T06:11:34;15.30;99.90
54518;DHT22;40423;53.176;6.002;2022-08-30T06:14:01;15.30;99.90
54518;DHT22;40423;53.176;6.002;2022-08-30T06:16:27;15.40;99.90
54518;DHT22;40423;53.176;6.002;2022-08-30T06:18:54;15.40;99.90
54518;DHT22;40423;53.176;6.002;2022-08-30T06:21:26;15.50;99.90
54518;DHT22;40423;53.176;6.002;2022-08-30T06:23:53;15.50;99.90
54518;DHT22;40423;53.176;6.002;2022-08-30T06:26:20;15.60;99.90
54518;DHT22;40423;53.176;6.002;2022-08-30T06:28:46;15.60;99.90
54518;DHT22;40423;53.176;6.002;2022-08-30T06:31:13;15.70;99.90
54518;DHT22;40423;53.176;6.002;2022-08-30T06:33:40;15.80;99.90
54518;DHT22;40423;53.176;6.002;2022-08-30T06:36:09;15.90;99.90
54518;DHT22;40423;53.176;6.002;2022-08-30T06:38:36;16.00;99.90
54518;DHT22;40423;53.176;6.002;2022-08-30T06:41:06;16.10;99.90
54518;DHT22;40423;53.176;6.002;2022-08-30T06:43:32;16.20;99.90
54518;DHT22;40423;53.176;6.002;2022-08-30T06:46:05;16.30;99.90
54518;DHT22;40423;53.176;6.002;2022-08-30T06:48:31;16.40;99.90
54518;DHT22;40423;53.176;6.002;2022-08-30T06:50:57;16.50;99.90
54518;DHT22;40423;53.176;6.002;2022-08-30T06:53:24;16.60;99.90
54518;DHT22;40423;53.176;6.002;2022-08-30T06:55:58;16.60;99.90
54518;DHT22;40423;53.176;6.002;2022-08-30T06:58:25;16.80;99.90
54518;DHT22;40423;53.176;6.002;2022-08-30T07:00:51;16.80;99.90
54518;DHT22;40423;53.176;6.002;2022-08-30T07:03:18;17.00;99.90
54518;DHT22;40423;53.176;6.002;2022-08-30T07:05:43;17.00;99.90
54518;DHT22;40423;53.176;6.002;2022-08-30T07:08:09;17.20;99.90
54518;DHT22;40423;53.176;6.002;2022-08-30T07:10:41;17.20;99.90
54518;DHT22;40423;53.176;6.002;2022-08-30T07:13:08;17.30;99.90
54518;DHT22;40423;53.176;6.002;2022-08-30T07:15:34;17.40;99.90
54518;DHT22;40423;53.176;6.002;2022-08-30T07:18:01;17.50;99.90
54518;DHT22;40423;53.176;6.002;2022-08-30T07:20:45;17.60;99.90
54518;DHT22;40423;53.176;6.002;2022-08-30T07:23:11;17.80;99.90
54518;DHT22;40423;53.176;6.002;2022-08-30T07:25:38;17.90;99.90
54518;DHT22;40423;53.176;6.002;2022-08-30T07:28:05;17.90;99.90
54518;DHT22;40423;53.176;6.002;2022-08-30T07:30:32;18.10;99.90
54518;DHT22;40423;53.176;6.002;2022-08-30T07:32:58;18.10;99.90
54518;DHT22;40423;53.176;6.002;2022-08-30T07:35:24;18.10;99.90
54518;DHT22;40423;53.176;6.002;2022-08-30T07:37:50;18.20;99.90
54518;DHT22;40423;53.176;6.002;2022-08-30T07:40:16;18.30;99.90
54518;DHT22;40423;53.176;6.002;2022-08-30T07:42:42;18.40;99.90
54518;DHT22;40423;53.176;6.002;2022-08-30T07:45:08;18.50;99.90
54518;DHT22;40423;53.176;6.002;2022-08-30T07:47:35;18.60;99.90
54518;DHT22;40423;53.176;6.002;2022-08-30T07:50:01;18.70;99.90
54518;DHT22;40423;53.176;6.002;2022-08-30T07:52:27;18.80;99.90
54518;DHT22;40423;53.176;6.002;2022-08-30T07:54:54;18.80;99.90
54518;DHT22;40423;53.176;6.002;2022-08-30T07:57:20;19.00;99.90
54518;DHT22;40423;53.176;6.002;2022-08-30T07:59:45;19.10;99.90
54518;DHT22;40423;53.176;6.002;2022-08-30T08:02:11;19.20;99.90
54518;DHT22;40423;53.176;6.002;2022-08-30T08:04:37;19.30;99.90
54518;DHT22;40423;53.176;6.002;2022-08-30T08:07:03;19.40;99.90
54518;DHT22;40423;53.176;6.002;2022-08-30T08:09:29;19.50;99.90
54518;DHT22;40423;53.176;6.002;2022-08-30T08:11:54;19.50;99.90
54518;DHT22;40423;53.176;6.002;2022-08-30T08:14:20;19.50;99.90
54518;DHT22;40423;53.176;6.002;2022-08-30T08:16:48;19.50;99.90
54518;DHT22;40423;53.176;6.002;2022-08-30T08:19:14;19.60;99.90
54518;DHT22;40423;53.176;6.002;2022-08-30T08:21:40;19.60;99.90
54518;DHT22;40423;53.176;6.002;2022-08-30T08:24:06;19.60;99.90
54518;DHT22;40423;53.176;6.002;2022-08-30T08:26:36;19.70;99.90
54518;DHT22;40423;53.176;6.002;2022-08-30T08:29:03;19.80;99.90
54518;DHT22;40423;53.176;6.002;2022-08-30T08:31:29;19.80;99.80
54518;DHT22;40423;53.176;6.002;2022-08-30T08:33:56;19.80;99.90
54518;DHT22;40423;53.176;6.002;2022-08-30T08:36:25;19.90;99.90
54518;DHT22;40423;53.176;6.002;2022-08-30T08:38:52;20.00;99.50
54518;DHT22;40423;53.176;6.002;2022-08-30T08:43:49;20.30;99.70
54518;DHT22;40423;53.176;6.002;2022-08-30T08:46:28;20.40;99.40
54518;DHT22;40423;53.176;6.002;2022-08-30T08:49:00;20.40;98.90
54518;DHT22;40423;53.176;6.002;2022-08-30T08:51:31;20.50;98.30
54518;DHT22;40423;53.176;6.002;2022-08-30T08:54:37;20.30;98.70
54518;DHT22;40423;53.176;6.002;2022-08-30T08:57:04;20.30;98.90
54518;DHT22;40423;53.176;6.002;2022-08-30T08:59:30;20.30;98.90
54518;DHT22;40423;53.176;6.002;2022-08-30T09:02:00;20.30;99.30
54518;DHT22;40423;53.176;6.002;2022-08-30T09:04:36;20.40;98.70
54518;DHT22;40423;53.176;6.002;2022-08-30T09:07:25;20.50;98.70
54518;DHT22;40423;53.176;6.002;2022-08-30T09:09:52;20.40;97.80
54518;DHT22;40423;53.176;6.002;2022-08-30T09:12:18;20.40;98.50
54518;DHT22;40423;53.176;6.002;2022-08-30T09:14:54;20.40;98.30
54518;DHT22;40423;53.176;6.002;2022-08-30T09:17:21;20.50;98.40
54518;DHT22;40423;53.176;6.002;2022-08-30T09:24:53;20.70;98.30
54518;DHT22;40423;53.176;6.002;2022-08-30T09:27:38;20.70;97.90
54518;DHT22;40423;53.176;6.002;2022-08-30T09:30:09;20.70;97.50
54518;DHT22;40423;53.176;6.002;2022-08-30T09:32:41;20.70;97.40
54518;DHT22;40423;53.176;6.002;2022-08-30T09:35:11;20.90;97.20
54518;DHT22;40423;53.176;6.002;2022-08-30T09:40:35;21.20;96.70
54518;DHT22;40423;53.176;6.002;2022-08-30T09:45:45;21.10;96.10
54518;DHT22;40423;53.176;6.002;2022-08-30T09:53:51;21.00;95.40
54518;DHT22;40423;53.176;6.002;2022-08-30T10:05:18;21.30;94.80
54518;DHT22;40423;53.176;6.002;2022-08-30T10:10:39;21.20;94.80
54518;DHT22;40423;53.176;6.002;2022-08-30T10:21:47;21.30;94.30
54518;DHT22;40423;53.176;6.002;2022-08-30T10:24:17;21.60;94.40
54518;DHT22;40423;53.176;6.002;2022-08-30T10:26:58;21.70;93.70
54518;DHT22;40423;53.176;6.002;2022-08-30T10:29:33;21.80;93.40
54518;DHT22;40423;53.176;6.002;2022-08-30T10:32:18;21.90;93.40
54518;DHT22;40423;53.176;6.002;2022-08-30T10:35:10;21.80;92.90
54518;DHT22;40423;53.176;6.002;2022-08-30T10:38:07;22.00;93.10
54518;DHT22;40423;53.176;6.002;2022-08-30T10:40:37;22.20;93.20
54518;DHT22;40423;53.176;6.002;2022-08-30T10:48:49;22.40;92.90
54518;DHT22;40423;53.176;6.002;2022-08-30T10:56:42;22.40;91.10
54518;DHT22;40423;53.176;6.002;2022-08-30T10:59:09;22.40;90.80
54518;DHT22;40423;53.176;6.002;2022-08-30T11:09:53;22.50;90.80
54518;DHT22;40423;53.176;6.002;2022-08-30T11:15:17;23.10;89.60
54518;DHT22;40423;53.176;6.002;2022-08-30T11:18:05;23.10;90.20
54518;DHT22;40423;53.176;6.002;2022-08-30T11:20:44;23.20;89.60
54518;DHT22;40423;53.176;6.002;2022-08-30T11:26:09;23.30;89.00
54518;DHT22;40423;53.176;6.002;2022-08-30T11:36:09;23.70;83.90
54518;DHT22;40423;53.176;6.002;2022-08-30T11:41:13;23.60;85.40
54518;DHT22;40423;53.176;6.002;2022-08-30T11:43:53;23.60;82.20
54518;DHT22;40423;53.176;6.002;2022-08-30T12:14:45;23.40;84.40
54518;DHT22;40423;53.176;6.002;2022-08-30T12:20:42;23.50;86.00
54518;DHT22;40423;53.176;6.002;2022-08-30T12:28:38;23.40;86.30
54518;DHT22;40423;53.176;6.002;2022-08-30T12:31:10;23.50;87.20
54518;DHT22;40423;53.176;6.002;2022-08-30T12:33:43;23.80;87.60
54518;DHT22;40423;53.176;6.002;2022-08-30T12:36:16;23.80;87.60
54518;DHT22;40423;53.176;6.002;2022-08-30T12:39:08;23.80;86.50
54518;DHT22;40423;53.176;6.002;2022-08-30T12:41:34;23.90;87.10
54518;DHT22;40423;53.176;6.002;2022-08-30T12:44:00;24.00;86.00
54518;DHT22;40423;53.176;6.002;2022-08-30T12:46:26;24.00;86.10
54518;DHT22;40423;53.176;6.002;2022-08-30T12:48:53;24.00;85.80
54518;DHT22;40423;53.176;6.002;2022-08-30T12:51:34;24.10;86.80
54518;DHT22;40423;53.176;6.002;2022-08-30T12:54:07;24.10;86.90
54518;DHT22;40423;53.176;6.002;2022-08-30T12:59:37;24.00;85.50
54518;DHT22;40423;53.176;6.002;2022-08-30T13:02:14;24.00;84.70
54518;DHT22;40423;53.176;6.002;2022-08-30T13:04:40;24.00;84.70
54518;DHT22;40423;53.176;6.002;2022-08-30T13:07:06;23.90;85.00
54518;DHT22;40423;53.176;6.002;2022-08-30T13:09:37;24.00;85.40
54518;DHT22;40423;53.176;6.002;2022-08-30T13:12:14;24.20;86.90
54518;DHT22;40423;53.176;6.002;2022-08-30T13:14:44;24.50;86.20
54518;DHT22;40423;53.176;6.002;2022-08-30T13:19:41;24.20;82.10
54518;DHT22;40423;53.176;6.002;2022-08-30T13:24:52;24.50;84.40
54518;DHT22;40423;53.176;6.002;2022-08-30T13:27:19;24.90;83.80
54518;DHT22;40423;53.176;6.002;2022-08-30T13:29:45;24.80;82.30
54518;DHT22;40423;53.176;6.002;2022-08-30T13:32:11;24.60;83.00
54518;DHT22;40423;53.176;6.002;2022-08-30T13:34:38;24.80;83.00
54518;DHT22;40423;53.176;6.002;2022-08-30T13:37:05;24.80;83.30
54518;DHT22;40423;53.176;6.002;2022-08-30T13:39:32;24.90;83.90
54518;DHT22;40423;53.176;6.002;2022-08-30T13:41:58;24.60;84.00
54518;DHT22;40423;53.176;6.002;2022-08-30T13:44:24;24.50;83.40
54518;DHT22;40423;53.176;6.002;2022-08-30T13:46:53;24.20;84.50
54518;DHT22;40423;53.176;6.002;2022-08-30T13:49:39;24.10;85.00
54518;DHT22;40423;53.176;6.002;2022-08-30T13:52:07;24.30;85.70
54518;DHT22;40423;53.176;6.002;2022-08-30T13:54:33;24.50;85.10
54518;DHT22;40423;53.176;6.002;2022-08-30T13:56:59;24.50;84.30
54518;DHT22;40423;53.176;6.002;2022-08-30T13:59:25;24.50;84.40
54518;DHT22;40423;53.176;6.002;2022-08-30T14:01:53;24.50;84.40
54518;DHT22;40423;53.176;6.002;2022-08-30T14:04:19;24.50;84.40
54518;DHT22;40423;53.176;6.002;2022-08-30T14:06:45;24.60;84.60
54518;DHT22;40423;53.176;6.002;2022-08-30T14:09:10;24.50;84.50
54518;DHT22;40423;53.176;6.002;2022-08-30T14:11:39;24.50;84.60
54518;DHT22;40423;53.176;6.002;2022-08-30T14:14:05;24.10;84.50
54518;DHT22;40423;53.176;6.002;2022-08-30T14:16:32;24.00;85.50
54518;DHT22;40423;53.176;6.002;2022-08-30T14:18:59;24.00;87.10
54518;DHT22;40423;53.176;6.002;2022-08-30T14:21:25;24.10;87.50
54518;DHT22;40423;53.176;6.002;2022-08-30T14:23:52;24.00;86.50
54518;DHT22;40423;53.176;6.002;2022-08-30T14:26:31;23.90;87.30
54518;DHT22;40423;53.176;6.002;2022-08-30T14:28:56;23.70;88.30
54518;DHT22;40423;53.176;6.002;2022-08-30T14:31:23;23.40;89.10
54518;DHT22;40423;53.176;6.002;2022-08-30T14:33:49;23.30;89.30
54518;DHT22;40423;53.176;6.002;2022-08-30T14:36:15;23.10;89.40
54518;DHT22;40423;53.176;6.002;2022-08-30T14:38:41;22.90;89.80
54518;DHT22;40423;53.176;6.002;2022-08-30T14:41:07;22.70;90.20
54518;DHT22;40423;53.176;6.002;2022-08-30T14:43:34;22.60;90.80
54518;DHT22;40423;53.176;6.002;2022-08-30T14:46:00;22.50;90.90
54518;DHT22;40423;53.176;6.002;2022-08-30T14:48:26;22.50;90.90
54518;DHT22;40423;53.176;6.002;2022-08-30T14:50:52;22.50;91.10
54518;DHT22;40423;53.176;6.002;2022-08-30T14:53:18;22.50;91.20
54518;DHT22;40423;53.176;6.002;2022-08-30T14:55:43;22.40;91.20
54518;DHT22;40423;53.176;6.002;2022-08-30T14:58:09;22.30;91.40
54518;DHT22;40423;53.176;6.002;2022-08-30T15:00:38;22.20;91.10
54518;DHT22;40423;53.176;6.002;2022-08-30T15:03:04;22.10;91.80
54518;DHT22;40423;53.176;6.002;2022-08-30T15:05:30;22.10;91.80
54518;DHT22;40423;53.176;6.002;2022-08-30T15:07:57;22.10;91.80
54518;DHT22;40423;53.176;6.002;2022-08-30T15:10:23;22.10;92.10
54518;DHT22;40423;53.176;6.002;2022-08-30T15:12:50;22.10;91.90
54518;DHT22;40423;53.176;6.002;2022-08-30T15:15:19;22.10;92.20
54518;DHT22;40423;53.176;6.002;2022-08-30T15:17:46;22.00;92.20
54518;DHT22;40423;53.176;6.002;2022-08-30T15:20:13;22.00;92.40
54518;DHT22;40423;53.176;6.002;2022-08-30T15:22:39;21.90;92.70
54518;DHT22;40423;53.176;6.002;2022-08-30T15:25:06;21.80;92.90
54518;DHT22;40423;53.176;6.002;2022-08-30T15:27:32;21.70;93.20
54518;DHT22;40423;53.176;6.002;2022-08-30T15:29:57;21.70;93.50
54518;DHT22;40423;53.176;6.002;2022-08-30T15:32:23;21.70;93.60
54518;DHT22;40423;53.176;6.002;2022-08-30T15:34:49;21.50;93.50
54518;DHT22;40423;53.176;6.002;2022-08-30T15:37:14;21.50;93.90
54518;DHT22;40423;53.176;6.002;2022-08-30T15:39:48;21.50;94.10
54518;DHT22;40423;53.176;6.002;2022-08-30T15:42:14;21.50;94.00
54518;DHT22;40423;53.176;6.002;2022-08-30T15:44:40;21.40;94.10
54518;DHT22;40423;53.176;6.002;2022-08-30T15:47:05;21.30;94.30
54518;DHT22;40423;53.176;6.002;2022-08-30T15:49:31;21.30;94.40
54518;DHT22;40423;53.176;6.002;2022-08-30T15:52:00;21.20;94.60
54518;DHT22;40423;53.176;6.002;2022-08-30T15:54:26;21.20;94.60
54518;DHT22;40423;53.176;6.002;2022-08-30T15:56:52;21.20;94.60
54518;DHT22;40423;53.176;6.002;2022-08-30T15:59:29;21.20;94.60
54518;DHT22;40423;53.176;6.002;2022-08-30T16:01:55;21.20;94.80
54518;DHT22;40423;53.176;6.002;2022-08-30T16:04:21;21.20;94.80
54518;DHT22;40423;53.176;6.002;2022-08-30T16:06:47;21.20;94.80
54518;DHT22;40423;53.176;6.002;2022-08-30T16:09:14;21.20;94.60
54518;DHT22;40423;53.176;6.002;2022-08-30T16:11:40;21.10;94.30
54518;DHT22;40423;53.176;6.002;2022-08-30T16:14:06;21.00;94.40
54518;DHT22;40423;53.176;6.002;2022-08-30T16:16:33;21.00;94.40
54518;DHT22;40423;53.176;6.002;2022-08-30T16:18:59;21.00;94.50
54518;DHT22;40423;53.176;6.002;2022-08-30T16:21:30;21.00;94.60
54518;DHT22;40423;53.176;6.002;2022-08-30T16:23:57;21.00;94.80
54518;DHT22;40423;53.176;6.002;2022-08-30T16:26:24;20.90;95.00
54518;DHT22;40423;53.176;6.002;2022-08-30T16:28:51;20.80;94.80
54518;DHT22;40423;53.176;6.002;2022-08-30T16:31:17;20.80;94.80
54518;DHT22;40423;53.176;6.002;2022-08-30T16:33:43;20.80;94.90
54518;DHT22;40423;53.176;6.002;2022-08-30T16:36:09;20.80;95.00
54518;DHT22;40423;53.176;6.002;2022-08-30T16:38:37;20.80;95.10
54518;DHT22;40423;53.176;6.002;2022-08-30T16:41:05;20.70;95.20
54518;DHT22;40423;53.176;6.002;2022-08-30T16:43:31;20.70;95.40
54518;DHT22;40423;53.176;6.002;2022-08-30T16:46:01;20.70;95.50
54518;DHT22;40423;53.176;6.002;2022-08-30T16:48:28;20.60;95.60
54518;DHT22;40423;53.176;6.002;2022-08-30T16:50:53;20.60;95.80
54518;DHT22;40423;53.176;6.002;2022-08-30T16:53:24;20.60;95.90
54518;DHT22;40423;53.176;6.002;2022-08-30T16:55:50;20.50;96.10
54518;DHT22;40423;53.176;6.002;2022-08-30T16:58:16;20.50;96.20
54518;DHT22;40423;53.176;6.002;2022-08-30T17:00:42;20.50;96.30
54518;DHT22;40423;53.176;6.002;2022-08-30T17:03:08;20.40;96.70
54518;DHT22;40423;53.176;6.002;2022-08-30T17:05:35;20.40;96.60
54518;DHT22;40423;53.176;6.002;2022-08-30T17:08:03;20.40;96.60
54518;DHT22;40423;53.176;6.002;2022-08-30T17:10:29;20.30;96.60
54518;DHT22;40423;53.176;6.002;2022-08-30T17:12:54;20.30;96.80
54518;DHT22;40423;53.176;6.002;2022-08-30T17:15:20;20.30;96.80
54518;DHT22;40423;53.176;6.002;2022-08-30T17:17:46;20.20;97.00
54518;DHT22;40423;53.176;6.002;2022-08-30T17:20:13;20.10;97.10
54518;DHT22;40423;53.176;6.002;2022-08-30T17:22:39;20.00;97.20
54518;DHT22;40423;53.176;6.002;2022-08-30T17:25:06;20.00;97.40
54518;DHT22;40423;53.176;6.002;2022-08-30T17:27:32;20.00;97.60
54518;DHT22;40423;53.176;6.002;2022-08-30T17:29:58;19.90;97.40
54518;DHT22;40423;53.176;6.002;2022-08-30T17:32:23;19.90;97.20
54518;DHT22;40423;53.176;6.002;2022-08-30T17:34:49;19.90;97.20
54518;DHT22;40423;53.176;6.002;2022-08-30T17:37:15;19.80;97.20